sensor_id;sensor_type;location;lat;lon;timestamp;P1;durP1;ratioP1;P2;durP2;ratioP2
68803;SDS011;55787;52.678;13.314;2023-05-21T00:00:52;19.23;;;11.70;;
68803;SDS011;55787;52.678;13.314;2023-05-21T00:03:19;19.67;;;12.52;;
68803;SDS011;55787;52.678;13.314;2023-05-21T00:05:46;20.67;;;12.23;;
68803;SDS011;55787;52.678;13.314;2023-05-21T00:08:15;18.02;;;11.65;;
68803;SDS011;55787;52.678;13.314;2023-05-21T00:10:42;18.38;;;11.18;;
68803;SDS011;55787;52.678;13.314;2023-05-21T00:13:09;22.30;;;12.70;;
68803;SDS011;55787;52.678;13.314;2023-05-21T00:15:35;21.20;;;12.88;;
68803;SDS011;55787;52.678;13.314;2023-05-21T00:18:03;22.58;;;12.63;;
68803;SDS011;55787;52.678;13.314;2023-05-21T00:20:30;20.33;;;12.40;;
68803;SDS011;55787;52.678;13.314;2023-05-21T00:23:00;20.23;;;12.38;;
68803;SDS011;55787;52.678;13.314;2023-05-21T00:25:28;20.58;;;12.63;;
68803;SDS011;55787;52.678;13.314;2023-05-21T00:27:55;21.77;;;12.68;;
68803;SDS011;55787;52.678;13.314;2023-05-21T00:30:22;19.67;;;11.45;;
68803;SDS011;55787;52.678;13.314;2023-05-21T00:32:48;21.23;;;12.00;;
68803;SDS011;55787;52.678;13.314;2023-05-21T00:35:15;18.95;;;12.10;;
68803;SDS011;55787;52.678;13.314;2023-05-21T00:37:43;19.80;;;12.52;;
68803;SDS011;55787;52.678;13.314;2023-05-21T00:40:10;21.27;;;12.23;;
68803;SDS011;55787;52.678;13.314;2023-05-21T00:42:38;20.23;;;11.68;;
68803;SDS011;55787;52.678;13.314;2023-05-21T00:45:05;21.30;;;12.65;;
68803;SDS011;55787;52.678;13.314;2023-05-21T00:47:33;21.42;;;12.18;;
68803;SDS011;55787;52.678;13.314;2023-05-21T00:50:01;21.52;;;12.45;;
68803;SDS011;55787;52.678;13.314;2023-05-21T00:52:29;21.23;;;12.45;;
68803;SDS011;55787;52.678;13.314;2023-05-21T00:54:56;23.88;;;13.35;;
68803;SDS011;55787;52.678;13.314;2023-05-21T00:57:24;21.48;;;12.52;;
68803;SDS011;55787;52.678;13.314;2023-05-21T00:59:52;20.67;;;11.93;;
68803;SDS011;55787;52.678;13.314;2023-05-21T01:02:19;19.80;;;12.10;;
68803;SDS011;55787;52.678;13.314;2023-05-21T01:04:50;21.67;;;12.73;;
68803;SDS011;55787;52.678;13.314;2023-05-21T01:07:19;22.48;;;13.48;;
68803;SDS011;55787;52.678;13.314;2023-05-21T01:09:47;22.45;;;12.85;;
68803;SDS011;55787;52.678;13.314;2023-05-21T01:12:13;21.52;;;12.77;;
68803;SDS011;55787;52.678;13.314;2023-05-21T01:14:40;21.33;;;13.15;;
68803;SDS011;55787;52.678;13.314;2023-05-21T01:17:07;21.92;;;13.23;;
68803;SDS011;55787;52.678;13.314;2023-05-21T01:19:35;25.83;;;13.15;;
68803;SDS011;55787;52.678;13.314;2023-05-21T01:22:04;22.35;;;13.38;;
68803;SDS011;55787;52.678;13.314;2023-05-21T01:24:32;22.73;;;13.23;;
68803;SDS011;55787;52.678;13.314;2023-05-21T01:27:00;23.38;;;13.10;;
68803;SDS011;55787;52.678;13.314;2023-05-21T01:29:27;23.05;;;13.15;;
68803;SDS011;55787;52.678;13.314;2023-05-21T01:34:53;21.85;;;13.10;;
68803;SDS011;55787;52.678;13.314;2023-05-21T01:40:10;22.55;;;12.90;;
68803;SDS011;55787;52.678;13.314;2023-05-21T01:42:43;21.33;;;13.18;;
68803;SDS011;55787;52.678;13.314;2023-05-21T01:45:11;24.25;;;13.90;;
68803;SDS011;55787;52.678;13.314;2023-05-21T01:47:46;25.17;;;13.82;;
68803;SDS011;55787;52.678;13.314;2023-05-21T01:50:15;23.50;;;13.85;;
68803;SDS011;55787;52.678;13.314;2023-05-21T01:52:47;24.48;;;13.40;;
68803;SDS011;55787;52.678;13.314;2023-05-21T01:55:16;23.75;;;14.35;;
68803;SDS011;55787;52.678;13.314;2023-05-21T01:57:43;24.60;;;14.70;;
68803;SDS011;55787;52.678;13.314;2023-05-21T02:00:10;25.63;;;14.73;;
68803;SDS011;55787;52.678;13.314;2023-05-21T02:02:38;22.85;;;14.55;;
68803;SDS011;55787;52.678;13.314;2023-05-21T02:05:05;25.25;;;15.05;;
68803;SDS011;55787;52.678;13.314;2023-05-21T02:07:32;26.00;;;15.55;;
68803;SDS011;55787;52.678;13.314;2023-05-21T02:13:47;26.55;;;15.63;;
68803;SDS011;55787;52.678;13.314;2023-05-21T02:16:14;23.85;;;14.55;;
68803;SDS011;55787;52.678;13.314;2023-05-21T02:18:41;26.20;;;15.43;;
68803;SDS011;55787;52.678;13.314;2023-05-21T02:21:12;23.33;;;14.35;;
68803;SDS011;55787;52.678;13.314;2023-05-21T02:23:39;25.75;;;15.73;;
68803;SDS011;55787;52.678;13.314;2023-05-21T02:26:06;25.45;;;15.20;;
68803;SDS011;55787;52.678;13.314;2023-05-21T02:28:33;27.48;;;16.58;;
68803;SDS011;55787;52.678;13.314;2023-05-21T02:31:01;28.30;;;16.38;;
68803;SDS011;55787;52.678;13.314;2023-05-21T02:33:28;28.58;;;17.08;;
68803;SDS011;55787;52.678;13.314;2023-05-21T02:35:54;27.52;;;16.88;;
68803;SDS011;55787;52.678;13.314;2023-05-21T02:38:21;31.27;;;16.95;;
68803;SDS011;55787;52.678;13.314;2023-05-21T02:40:49;29.40;;;16.90;;
68803;SDS011;55787;52.678;13.314;2023-05-21T02:43:19;31.88;;;16.92;;
68803;SDS011;55787;52.678;13.314;2023-05-21T02:45:45;29.38;;;17.60;;
68803;SDS011;55787;52.678;13.314;2023-05-21T02:48:12;29.38;;;17.15;;
68803;SDS011;55787;52.678;13.314;2023-05-21T02:50:39;32.10;;;19.27;;
68803;SDS011;55787;52.678;13.314;2023-05-21T02:53:06;31.92;;;18.45;;
68803;SDS011;55787;52.678;13.314;2023-05-21T02:55:33;30.75;;;17.60;;
68803;SDS011;55787;52.678;13.314;2023-05-21T02:58:00;29.98;;;17.00;;
68803;SDS011;55787;52.678;13.314;2023-05-21T03:00:27;29.50;;;17.08;;
68803;SDS011;55787;52.678;13.314;2023-05-21T03:02:53;29.40;;;17.98;;
68803;SDS011;55787;52.678;13.314;2023-05-21T03:05:20;31.90;;;18.33;;
68803;SDS011;55787;52.678;13.314;2023-05-21T03:07:47;30.85;;;18.77;;
68803;SDS011;55787;52.678;13.314;2023-05-21T03:10:14;30.05;;;17.85;;
68803;SDS011;55787;52.678;13.314;2023-05-21T03:12:40;32.20;;;18.55;;
68803;SDS011;55787;52.678;13.314;2023-05-21T03:15:07;30.95;;;18.90;;
68803;SDS011;55787;52.678;13.314;2023-05-21T03:17:34;33.05;;;18.85;;
68803;SDS011;55787;52.678;13.314;2023-05-21T03:20:01;32.60;;;19.08;;
68803;SDS011;55787;52.678;13.314;2023-05-21T03:22:30;30.65;;;18.48;;
68803;SDS011;55787;52.678;13.314;2023-05-21T03:24:56;31.35;;;19.27;;
68803;SDS011;55787;52.678;13.314;2023-05-21T03:27:23;30.90;;;18.48;;
68803;SDS011;55787;52.678;13.314;2023-05-21T03:29:50;33.10;;;19.02;;
68803;SDS011;55787;52.678;13.314;2023-05-21T03:32:17;32.13;;;19.38;;
68803;SDS011;55787;52.678;13.314;2023-05-21T03:34:43;33.38;;;19.75;;
68803;SDS011;55787;52.678;13.314;2023-05-21T03:37:10;35.85;;;20.17;;
68803;SDS011;55787;52.678;13.314;2023-05-21T03:39:37;37.60;;;21.08;;
68803;SDS011;55787;52.678;13.314;2023-05-21T03:42:04;34.35;;;21.10;;
68803;SDS011;55787;52.678;13.314;2023-05-21T03:44:31;37.30;;;21.13;;
68803;SDS011;55787;52.678;13.314;2023-05-21T03:46:57;36.50;;;20.00;;
68803;SDS011;55787;52.678;13.314;2023-05-21T03:49:24;36.03;;;21.17;;
68803;SDS011;55787;52.678;13.314;2023-05-21T03:51:52;35.22;;;21.42;;
68803;SDS011;55787;52.678;13.314;2023-05-21T03:54:19;38.35;;;21.90;;
68803;SDS011;55787;52.678;13.314;2023-05-21T03:56:45;40.63;;;22.73;;
68803;SDS011;55787;52.678;13.314;2023-05-21T03:59:12;36.90;;;22.10;;
68803;SDS011;55787;52.678;13.314;2023-05-21T04:01:39;38.70;;;21.38;;
68803;SDS011;55787;52.678;13.314;2023-05-21T04:04:05;35.22;;;20.48;;
68803;SDS011;55787;52.678;13.314;2023-05-21T04:06:32;36.08;;;21.23;;
68803;SDS011;55787;52.678;13.314;2023-05-21T04:08:59;36.05;;;21.58;;
68803;SDS011;55787;52.678;13.314;2023-05-21T04:11:26;35.63;;;20.85;;
68803;SDS011;55787;52.678;13.314;2023-05-21T04:13:53;34.42;;;19.75;;
68803;SDS011;55787;52.678;13.314;2023-05-21T04:16:19;34.53;;;20.25;;
68803;SDS011;55787;52.678;13.314;2023-05-21T04:18:46;36.17;;;20.90;;
68803;SDS011;55787;52.678;13.314;2023-05-21T04:21:13;34.88;;;20.25;;
68803;SDS011;55787;52.678;13.314;2023-05-21T04:23:40;33.58;;;20.42;;
68803;SDS011;55787;52.678;13.314;2023-05-21T04:26:06;33.25;;;20.73;;
68803;SDS011;55787;52.678;13.314;2023-05-21T04:28:33;33.13;;;20.42;;
68803;SDS011;55787;52.678;13.314;2023-05-21T04:31:00;33.42;;;19.17;;
68803;SDS011;55787;52.678;13.314;2023-05-21T04:33:27;29.75;;;19.50;;
68803;SDS011;55787;52.678;13.314;2023-05-21T04:35:54;30.02;;;18.75;;
68803;SDS011;55787;52.678;13.314;2023-05-21T04:38:20;29.25;;;18.23;;
68803;SDS011;55787;52.678;13.314;2023-05-21T04:40:50;28.70;;;17.35;;
68803;SDS011;55787;52.678;13.314;2023-05-21T04:43:17;27.48;;;17.73;;
68803;SDS011;55787;52.678;13.314;2023-05-21T04:45:51;26.38;;;17.30;;
68803;SDS011;55787;52.678;13.314;2023-05-21T04:48:23;26.77;;;16.95;;
68803;SDS011;55787;52.678;13.314;2023-05-21T04:50:50;26.25;;;16.48;;
68803;SDS011;55787;52.678;13.314;2023-05-21T04:53:18;26.38;;;16.90;;
68803;SDS011;55787;52.678;13.314;2023-05-21T04:55:45;27.20;;;17.00;;
68803;SDS011;55787;52.678;13.314;2023-05-21T04:58:12;24.70;;;16.35;;
68803;SDS011;55787;52.678;13.314;2023-05-21T05:00:39;25.42;;;16.02;;
68803;SDS011;55787;52.678;13.314;2023-05-21T05:03:07;26.63;;;15.57;;
68803;SDS011;55787;52.678;13.314;2023-05-21T05:05:34;23.63;;;15.63;;
68803;SDS011;55787;52.678;13.314;2023-05-21T05:08:01;24.85;;;15.63;;
68803;SDS011;55787;52.678;13.314;2023-05-21T05:10:29;24.98;;;15.07;;
68803;SDS011;55787;52.678;13.314;2023-05-21T05:12:56;22.27;;;15.35;;
68803;SDS011;55787;52.678;13.314;2023-05-21T05:15:22;22.42;;;15.05;;
68803;SDS011;55787;52.678;13.314;2023-05-21T05:17:49;26.38;;;15.70;;
68803;SDS011;55787;52.678;13.314;2023-05-21T05:20:16;23.48;;;15.20;;
68803;SDS011;55787;52.678;13.314;2023-05-21T05:22:42;23.75;;;14.77;;
68803;SDS011;55787;52.678;13.314;2023-05-21T05:25:09;23.15;;;14.90;;
68803;SDS011;55787;52.678;13.314;2023-05-21T05:27:36;22.90;;;14.00;;
68803;SDS011;55787;52.678;13.314;2023-05-21T05:30:04;23.45;;;14.13;;
68803;SDS011;55787;52.678;13.314;2023-05-21T05:32:31;22.23;;;15.05;;
68803;SDS011;55787;52.678;13.314;2023-05-21T05:34:58;22.33;;;14.15;;
68803;SDS011;55787;52.678;13.314;2023-05-21T05:37:27;22.92;;;14.70;;
68803;SDS011;55787;52.678;13.314;2023-05-21T05:39:54;22.02;;;14.30;;
68803;SDS011;55787;52.678;13.314;2023-05-21T05:42:21;22.33;;;14.63;;
68803;SDS011;55787;52.678;13.314;2023-05-21T05:44:47;22.65;;;14.35;;
68803;SDS011;55787;52.678;13.314;2023-05-21T05:47:14;21.05;;;15.02;;
68803;SDS011;55787;52.678;13.314;2023-05-21T05:49:41;22.33;;;15.10;;
68803;SDS011;55787;52.678;13.314;2023-05-21T05:52:08;21.65;;;14.30;;
68803;SDS011;55787;52.678;13.314;2023-05-21T05:54:35;22.30;;;14.77;;
68803;SDS011;55787;52.678;13.314;2023-05-21T05:57:02;21.10;;;13.55;;
68803;SDS011;55787;52.678;13.314;2023-05-21T05:59:28;23.10;;;13.65;;
68803;SDS011;55787;52.678;13.314;2023-05-21T06:01:56;23.00;;;14.60;;
68803;SDS011;55787;52.678;13.314;2023-05-21T06:04:22;21.83;;;14.02;;
68803;SDS011;55787;52.678;13.314;2023-05-21T06:06:49;20.42;;;14.02;;
68803;SDS011;55787;52.678;13.314;2023-05-21T06:09:16;21.70;;;13.60;;
68803;SDS011;55787;52.678;13.314;2023-05-21T06:11:42;21.70;;;13.77;;
68803;SDS011;55787;52.678;13.314;2023-05-21T06:14:09;19.85;;;13.80;;
68803;SDS011;55787;52.678;13.314;2023-05-21T06:16:35;21.73;;;13.98;;
68803;SDS011;55787;52.678;13.314;2023-05-21T06:19:02;21.50;;;13.70;;
68803;SDS011;55787;52.678;13.314;2023-05-21T06:21:29;22.23;;;14.32;;
68803;SDS011;55787;52.678;13.314;2023-05-21T06:23:56;20.35;;;13.07;;
68803;SDS011;55787;52.678;13.314;2023-05-21T06:26:22;18.48;;;12.80;;
68803;SDS011;55787;52.678;13.314;2023-05-21T06:28:49;18.63;;;12.32;;
68803;SDS011;55787;52.678;13.314;2023-05-21T06:31:16;19.55;;;13.27;;
68803;SDS011;55787;52.678;13.314;2023-05-21T06:33:43;19.38;;;13.40;;
68803;SDS011;55787;52.678;13.314;2023-05-21T06:36:10;19.23;;;13.20;;
68803;SDS011;55787;52.678;13.314;2023-05-21T06:38:36;19.13;;;13.18;;
68803;SDS011;55787;52.678;13.314;2023-05-21T06:41:03;19.67;;;13.32;;
68803;SDS011;55787;52.678;13.314;2023-05-21T06:43:30;20.05;;;12.80;;
68803;SDS011;55787;52.678;13.314;2023-05-21T06:45:56;18.75;;;12.98;;
68803;SDS011;55787;52.678;13.314;2023-05-21T06:48:24;19.63;;;13.20;;
68803;SDS011;55787;52.678;13.314;2023-05-21T06:50:50;17.58;;;12.55;;
68803;SDS011;55787;52.678;13.314;2023-05-21T06:53:17;17.98;;;12.85;;
68803;SDS011;55787;52.678;13.314;2023-05-21T06:55:44;20.30;;;13.32;;
68803;SDS011;55787;52.678;13.314;2023-05-21T06:58:11;19.48;;;12.50;;
68803;SDS011;55787;52.678;13.314;2023-05-21T07:00:37;19.02;;;12.45;;
68803;SDS011;55787;52.678;13.314;2023-05-21T07:03:04;18.20;;;12.00;;
68803;SDS011;55787;52.678;13.314;2023-05-21T07:05:31;17.27;;;12.15;;
68803;SDS011;55787;52.678;13.314;2023-05-21T07:07:58;18.08;;;12.45;;
68803;SDS011;55787;52.678;13.314;2023-05-21T07:10:24;18.52;;;12.73;;
68803;SDS011;55787;52.678;13.314;2023-05-21T07:12:51;17.35;;;11.93;;
68803;SDS011;55787;52.678;13.314;2023-05-21T07:15:18;16.85;;;12.10;;
68803;SDS011;55787;52.678;13.314;2023-05-21T07:17:44;18.60;;;11.65;;
68803;SDS011;55787;52.678;13.314;2023-05-21T07:20:11;18.42;;;11.90;;
68803;SDS011;55787;52.678;13.314;2023-05-21T07:22:38;17.55;;;11.98;;
68803;SDS011;55787;52.678;13.314;2023-05-21T07:25:06;16.83;;;11.38;;
68803;SDS011;55787;52.678;13.314;2023-05-21T07:27:34;15.82;;;11.50;;
68803;SDS011;55787;52.678;13.314;2023-05-21T07:30:01;16.45;;;11.20;;
68803;SDS011;55787;52.678;13.314;2023-05-21T07:32:28;17.15;;;10.90;;
68803;SDS011;55787;52.678;13.314;2023-05-21T07:34:54;17.23;;;11.30;;
68803;SDS011;55787;52.678;13.314;2023-05-21T07:37:22;15.43;;;10.93;;
68803;SDS011;55787;52.678;13.314;2023-05-21T07:39:48;17.40;;;11.52;;
68803;SDS011;55787;52.678;13.314;2023-05-21T07:42:15;15.93;;;11.43;;
68803;SDS011;55787;52.678;13.314;2023-05-21T07:44:41;17.33;;;11.20;;
68803;SDS011;55787;52.678;13.314;2023-05-21T07:47:08;15.90;;;10.60;;
68803;SDS011;55787;52.678;13.314;2023-05-21T07:49:35;15.25;;;10.82;;
68803;SDS011;55787;52.678;13.314;2023-05-21T07:52:01;15.48;;;10.88;;
68803;SDS011;55787;52.678;13.314;2023-05-21T07:54:28;15.45;;;10.48;;
68803;SDS011;55787;52.678;13.314;2023-05-21T07:56:55;14.05;;;10.13;;
68803;SDS011;55787;52.678;13.314;2023-05-21T07:59:22;15.25;;;9.82;;
68803;SDS011;55787;52.678;13.314;2023-05-21T08:01:48;14.27;;;9.93;;
68803;SDS011;55787;52.678;13.314;2023-05-21T08:04:15;16.33;;;10.55;;
68803;SDS011;55787;52.678;13.314;2023-05-21T08:06:42;13.95;;;10.57;;
68803;SDS011;55787;52.678;13.314;2023-05-21T08:09:09;13.60;;;9.98;;
68803;SDS011;55787;52.678;13.314;2023-05-21T08:11:37;14.75;;;10.07;;
68803;SDS011;55787;52.678;13.314;2023-05-21T08:14:04;14.15;;;10.10;;
68803;SDS011;55787;52.678;13.314;2023-05-21T08:16:30;14.27;;;10.05;;
68803;SDS011;55787;52.678;13.314;2023-05-21T08:18:57;12.85;;;9.88;;
68803;SDS011;55787;52.678;13.314;2023-05-21T08:21:24;13.23;;;9.50;;
68803;SDS011;55787;52.678;13.314;2023-05-21T08:23:51;14.98;;;9.60;;
68803;SDS011;55787;52.678;13.314;2023-05-21T08:26:18;14.27;;;10.00;;
68803;SDS011;55787;52.678;13.314;2023-05-21T08:28:45;14.30;;;9.55;;
68803;SDS011;55787;52.678;13.314;2023-05-21T08:31:11;12.07;;;9.93;;
68803;SDS011;55787;52.678;13.314;2023-05-21T08:33:38;12.57;;;9.85;;
68803;SDS011;55787;52.678;13.314;2023-05-21T08:36:05;13.18;;;9.18;;
68803;SDS011;55787;52.678;13.314;2023-05-21T08:38:33;12.52;;;9.07;;
68803;SDS011;55787;52.678;13.314;2023-05-21T08:41:00;15.27;;;9.63;;
68803;SDS011;55787;52.678;13.314;2023-05-21T08:43:27;13.52;;;9.30;;
68803;SDS011;55787;52.678;13.314;2023-05-21T08:45:55;12.70;;;9.68;;
68803;SDS011;55787;52.678;13.314;2023-05-21T08:48:25;14.27;;;9.80;;
68803;SDS011;55787;52.678;13.314;2023-05-21T08:50:53;12.57;;;9.77;;
68803;SDS011;55787;52.678;13.314;2023-05-21T08:53:21;12.57;;;9.07;;
68803;SDS011;55787;52.678;13.314;2023-05-21T08:55:54;13.13;;;9.10;;
68803;SDS011;55787;52.678;13.314;2023-05-21T08:58:22;14.43;;;8.98;;
68803;SDS011;55787;52.678;13.314;2023-05-21T09:00:49;14.85;;;8.95;;
68803;SDS011;55787;52.678;13.314;2023-05-21T09:03:16;12.27;;;8.90;;
68803;SDS011;55787;52.678;13.314;2023-05-21T09:05:44;12.55;;;8.55;;
68803;SDS011;55787;52.678;13.314;2023-05-21T09:08:33;11.85;;;8.68;;
68803;SDS011;55787;52.678;13.314;2023-05-21T09:11:01;13.27;;;8.93;;
68803;SDS011;55787;52.678;13.314;2023-05-21T09:13:30;13.32;;;8.30;;
68803;SDS011;55787;52.678;13.314;2023-05-21T09:15:58;12.77;;;8.55;;
68803;SDS011;55787;52.678;13.314;2023-05-21T09:18:25;12.20;;;8.57;;
68803;SDS011;55787;52.678;13.314;2023-05-21T09:20:54;12.60;;;8.00;;
68803;SDS011;55787;52.678;13.314;2023-05-21T09:23:21;11.60;;;8.10;;
68803;SDS011;55787;52.678;13.314;2023-05-21T09:25:48;14.52;;;8.35;;
68803;SDS011;55787;52.678;13.314;2023-05-21T09:28:17;12.27;;;8.45;;
68803;SDS011;55787;52.678;13.314;2023-05-21T09:30:48;11.30;;;8.25;;
68803;SDS011;55787;52.678;13.314;2023-05-21T09:33:26;11.55;;;8.38;;
68803;SDS011;55787;52.678;13.314;2023-05-21T09:35:54;13.50;;;8.73;;
68803;SDS011;55787;52.678;13.314;2023-05-21T09:38:21;12.20;;;8.77;;
68803;SDS011;55787;52.678;13.314;2023-05-21T09:40:49;12.68;;;8.05;;
68803;SDS011;55787;52.678;13.314;2023-05-21T09:43:16;10.50;;;8.05;;
68803;SDS011;55787;52.678;13.314;2023-05-21T09:45:52;10.85;;;8.02;;
68803;SDS011;55787;52.678;13.314;2023-05-21T09:51:16;13.10;;;8.20;;
68803;SDS011;55787;52.678;13.314;2023-05-21T09:53:51;11.63;;;7.82;;
68803;SDS011;55787;52.678;13.314;2023-05-21T09:56:19;11.37;;;8.07;;
68803;SDS011;55787;52.678;13.314;2023-05-21T09:58:57;11.82;;;7.97;;
68803;SDS011;55787;52.678;13.314;2023-05-21T10:01:26;12.43;;;7.70;;
68803;SDS011;55787;52.678;13.314;2023-05-21T10:03:54;13.00;;;7.80;;
68803;SDS011;55787;52.678;13.314;2023-05-21T10:06:26;12.93;;;7.50;;
68803;SDS011;55787;52.678;13.314;2023-05-21T10:08:54;10.33;;;7.40;;
68803;SDS011;55787;52.678;13.314;2023-05-21T10:11:25;11.20;;;8.00;;
68803;SDS011;55787;52.678;13.314;2023-05-21T10:14:05;13.20;;;7.95;;
68803;SDS011;55787;52.678;13.314;2023-05-21T10:16:34;10.65;;;7.43;;
68803;SDS011;55787;52.678;13.314;2023-05-21T10:19:01;12.98;;;8.45;;
68803;SDS011;55787;52.678;13.314;2023-05-21T10:21:30;11.50;;;8.10;;
68803;SDS011;55787;52.678;13.314;2023-05-21T10:23:58;11.27;;;7.60;;
68803;SDS011;55787;52.678;13.314;2023-05-21T10:26:27;14.43;;;7.95;;
68803;SDS011;55787;52.678;13.314;2023-05-21T10:28:55;11.45;;;7.47;;
68803;SDS011;55787;52.678;13.314;2023-05-21T10:31:25;12.05;;;8.23;;
68803;SDS011;55787;52.678;13.314;2023-05-21T10:33:53;10.60;;;7.80;;
68803;SDS011;55787;52.678;13.314;2023-05-21T10:36:21;13.38;;;8.25;;
68803;SDS011;55787;52.678;13.314;2023-05-21T10:38:49;12.20;;;7.63;;
68803;SDS011;55787;52.678;13.314;2023-05-21T10:41:17;10.48;;;7.60;;
68803;SDS011;55787;52.678;13.314;2023-05-21T10:43:50;10.77;;;7.70;;
68803;SDS011;55787;52.678;13.314;2023-05-21T10:55:16;11.93;;;8.27;;
68803;SDS011;55787;52.678;13.314;2023-05-21T11:01:08;10.67;;;7.37;;
68803;SDS011;55787;52.678;13.314;2023-05-21T11:03:36;11.02;;;7.07;;
68803;SDS011;55787;52.678;13.314;2023-05-21T11:06:03;10.20;;;6.80;;
68803;SDS011;55787;52.678;13.314;2023-05-21T11:08:31;11.32;;;7.72;;
68803;SDS011;55787;52.678;13.314;2023-05-21T11:11:02;11.63;;;7.78;;
68803;SDS011;55787;52.678;13.314;2023-05-21T11:13:45;11.83;;;6.93;;
68803;SDS011;55787;52.678;13.314;2023-05-21T11:16:14;14.80;;;7.63;;
68803;SDS011;55787;52.678;13.314;2023-05-21T11:21:09;10.82;;;7.07;;
68803;SDS011;55787;52.678;13.314;2023-05-21T11:23:55;12.52;;;7.47;;
68803;SDS011;55787;52.678;13.314;2023-05-21T11:26:23;12.97;;;7.67;;
68803;SDS011;55787;52.678;13.314;2023-05-21T11:29:24;10.68;;;7.32;;
68803;SDS011;55787;52.678;13.314;2023-05-21T11:31:59;12.90;;;8.10;;
68803;SDS011;55787;52.678;13.314;2023-05-21T11:34:46;10.30;;;7.57;;
68803;SDS011;55787;52.678;13.314;2023-05-21T11:39:43;12.07;;;7.70;;
68803;SDS011;55787;52.678;13.314;2023-05-21T11:42:11;11.52;;;7.47;;
68803;SDS011;55787;52.678;13.314;2023-05-21T11:44:46;10.68;;;7.97;;
68803;SDS011;55787;52.678;13.314;2023-05-21T11:47:16;10.70;;;7.28;;
68803;SDS011;55787;52.678;13.314;2023-05-21T11:49:44;13.18;;;7.78;;
68803;SDS011;55787;52.678;13.314;2023-05-21T11:52:12;11.87;;;7.90;;
68803;SDS011;55787;52.678;13.314;2023-05-21T11:54:43;10.55;;;7.20;;
68803;SDS011;55787;52.678;13.314;2023-05-21T11:57:18;11.65;;;8.15;;
68803;SDS011;55787;52.678;13.314;2023-05-21T11:59:45;10.27;;;7.55;;
68803;SDS011;55787;52.678;13.314;2023-05-21T12:02:16;9.80;;;7.32;;
68803;SDS011;55787;52.678;13.314;2023-05-21T12:04:44;10.87;;;7.37;;
68803;SDS011;55787;52.678;13.314;2023-05-21T12:07:14;8.68;;;6.40;;
68803;SDS011;55787;52.678;13.314;2023-05-21T12:09:42;11.52;;;6.53;;
68803;SDS011;55787;52.678;13.314;2023-05-21T12:12:11;8.98;;;6.80;;
68803;SDS011;55787;52.678;13.314;2023-05-21T12:14:42;10.32;;;6.72;;
68803;SDS011;55787;52.678;13.314;2023-05-21T12:17:10;9.97;;;6.90;;
68803;SDS011;55787;52.678;13.314;2023-05-21T12:19:40;10.38;;;6.40;;
68803;SDS011;55787;52.678;13.314;2023-05-21T12:22:07;10.38;;;6.15;;
68803;SDS011;55787;52.678;13.314;2023-05-21T12:24:35;9.43;;;6.10;;
68803;SDS011;55787;52.678;13.314;2023-05-21T12:27:03;11.68;;;6.45;;
68803;SDS011;55787;52.678;13.314;2023-05-21T12:29:35;10.50;;;6.27;;
68803;SDS011;55787;52.678;13.314;2023-05-21T12:32:05;9.32;;;6.40;;
68803;SDS011;55787;52.678;13.314;2023-05-21T12:37:14;8.90;;;5.70;;
68803;SDS011;55787;52.678;13.314;2023-05-21T12:39:43;9.68;;;5.90;;
68803;SDS011;55787;52.678;13.314;2023-05-21T12:42:11;9.47;;;6.47;;
68803;SDS011;55787;52.678;13.314;2023-05-21T12:44:42;10.10;;;6.38;;
68803;SDS011;55787;52.678;13.314;2023-05-21T12:47:10;10.65;;;6.57;;
68803;SDS011;55787;52.678;13.314;2023-05-21T12:49:40;11.75;;;6.35;;
68803;SDS011;55787;52.678;13.314;2023-05-21T12:52:10;9.38;;;5.97;;
68803;SDS011;55787;52.678;13.314;2023-05-21T12:54:38;9.57;;;5.80;;
68803;SDS011;55787;52.678;13.314;2023-05-21T12:57:14;8.85;;;5.95;;
68803;SDS011;55787;52.678;13.314;2023-05-21T12:59:43;10.30;;;6.68;;
68803;SDS011;55787;52.678;13.314;2023-05-21T13:02:14;9.77;;;6.68;;
68803;SDS011;55787;52.678;13.314;2023-05-21T13:04:43;9.77;;;6.53;;
68803;SDS011;55787;52.678;13.314;2023-05-21T13:07:10;13.70;;;6.37;;
68803;SDS011;55787;52.678;13.314;2023-05-21T13:09:37;11.57;;;6.53;;
68803;SDS011;55787;52.678;13.314;2023-05-21T13:12:04;10.73;;;6.40;;
68803;SDS011;55787;52.678;13.314;2023-05-21T13:14:31;9.20;;;5.90;;
68803;SDS011;55787;52.678;13.314;2023-05-21T13:16:57;10.18;;;5.95;;
68803;SDS011;55787;52.678;13.314;2023-05-21T13:19:24;10.13;;;5.43;;
68803;SDS011;55787;52.678;13.314;2023-05-21T13:21:51;10.45;;;5.93;;
68803;SDS011;55787;52.678;13.314;2023-05-21T13:24:18;8.52;;;5.22;;
68803;SDS011;55787;52.678;13.314;2023-05-21T13:26:45;10.68;;;5.50;;
68803;SDS011;55787;52.678;13.314;2023-05-21T13:29:11;11.70;;;6.32;;
68803;SDS011;55787;52.678;13.314;2023-05-21T13:31:40;10.40;;;5.87;;
68803;SDS011;55787;52.678;13.314;2023-05-21T13:34:07;10.93;;;5.60;;
68803;SDS011;55787;52.678;13.314;2023-05-21T13:36:34;10.40;;;5.82;;
68803;SDS011;55787;52.678;13.314;2023-05-21T13:39:01;11.73;;;5.47;;
68803;SDS011;55787;52.678;13.314;2023-05-21T13:41:28;8.80;;;5.60;;
68803;SDS011;55787;52.678;13.314;2023-05-21T13:43:55;10.20;;;5.53;;
68803;SDS011;55787;52.678;13.314;2023-05-21T13:46:21;10.85;;;5.00;;
68803;SDS011;55787;52.678;13.314;2023-05-21T13:48:48;10.75;;;5.90;;
68803;SDS011;55787;52.678;13.314;2023-05-21T13:51:15;9.65;;;5.90;;
68803;SDS011;55787;52.678;13.314;2023-05-21T13:54:02;10.10;;;6.05;;
68803;SDS011;55787;52.678;13.314;2023-05-21T13:56:29;10.70;;;6.07;;
68803;SDS011;55787;52.678;13.314;2023-05-21T13:58:58;11.07;;;5.60;;
68803;SDS011;55787;52.678;13.314;2023-05-21T14:01:25;9.98;;;5.75;;
68803;SDS011;55787;52.678;13.314;2023-05-21T14:03:52;10.10;;;5.88;;
68803;SDS011;55787;52.678;13.314;2023-05-21T14:06:19;10.75;;;5.40;;
68803;SDS011;55787;52.678;13.314;2023-05-21T14:08:46;9.53;;;5.67;;
68803;SDS011;55787;52.678;13.314;2023-05-21T14:11:13;10.13;;;5.38;;
68803;SDS011;55787;52.678;13.314;2023-05-21T14:13:39;9.98;;;5.72;;
68803;SDS011;55787;52.678;13.314;2023-05-21T14:16:06;8.90;;;5.55;;
68803;SDS011;55787;52.678;13.314;2023-05-21T14:18:33;9.07;;;5.57;;
68803;SDS011;55787;52.678;13.314;2023-05-21T14:20:59;10.50;;;5.87;;
68803;SDS011;55787;52.678;13.314;2023-05-21T14:23:27;11.57;;;5.65;;
68803;SDS011;55787;52.678;13.314;2023-05-21T14:25:54;10.85;;;5.70;;
68803;SDS011;55787;52.678;13.314;2023-05-21T14:28:21;10.00;;;5.63;;
68803;SDS011;55787;52.678;13.314;2023-05-21T14:30:47;10.63;;;5.22;;
68803;SDS011;55787;52.678;13.314;2023-05-21T14:33:14;9.30;;;5.40;;
68803;SDS011;55787;52.678;13.314;2023-05-21T14:35:41;8.90;;;5.50;;
68803;SDS011;55787;52.678;13.314;2023-05-21T14:38:09;9.88;;;5.45;;
68803;SDS011;55787;52.678;13.314;2023-05-21T14:40:36;9.98;;;5.80;;
68803;SDS011;55787;52.678;13.314;2023-05-21T14:43:03;10.63;;;5.82;;
68803;SDS011;55787;52.678;13.314;2023-05-21T14:45:31;10.37;;;5.93;;
68803;SDS011;55787;52.678;13.314;2023-05-21T14:48:00;9.00;;;5.40;;
68803;SDS011;55787;52.678;13.314;2023-05-21T14:50:34;11.80;;;5.70;;
68803;SDS011;55787;52.678;13.314;2023-05-21T14:53:07;9.00;;;5.35;;